sensor_id;sensor_type;location;lat;lon;timestamp;P1;durP1;ratioP1;P2;durP2;ratioP2
1446;SDS011;717;51.522;7.266;2024-01-06T00:01:55;8.82;;;7.93;;
1446;SDS011;717;51.522;7.266;2024-01-06T00:04:25;8.48;;;7.57;;
1446;SDS011;717;51.522;7.266;2024-01-06T00:06:58;8.80;;;7.90;;
1446;SDS011;717;51.522;7.266;2024-01-06T00:09:28;7.88;;;7.07;;
1446;SDS011;717;51.522;7.266;2024-01-06T00:11:58;8.30;;;7.43;;
1446;SDS011;717;51.522;7.266;2024-01-06T00:14:28;9.60;;;8.68;;
1446;SDS011;717;51.522;7.266;2024-01-06T00:16:58;8.75;;;7.85;;
1446;SDS011;717;51.522;7.266;2024-01-06T00:19:28;8.27;;;7.53;;
1446;SDS011;717;51.522;7.266;2024-01-06T00:22:01;9.90;;;8.73;;
1446;SDS011;717;51.522;7.266;2024-01-06T00:24:31;9.50;;;8.25;;
1446;SDS011;717;51.522;7.266;2024-01-06T00:27:01;8.80;;;7.65;;
1446;SDS011;717;51.522;7.266;2024-01-06T00:29:31;8.98;;;8.13;;
1446;SDS011;717;51.522;7.266;2024-01-06T00:32:01;9.07;;;8.07;;
1446;SDS011;717;51.522;7.266;2024-01-06T00:34:31;8.90;;;7.75;;
1446;SDS011;717;51.522;7.266;2024-01-06T00:37:04;8.48;;;7.63;;
1446;SDS011;717;51.522;7.266;2024-01-06T00:39:34;9.85;;;7.95;;
1446;SDS011;717;51.522;7.266;2024-01-06T00:42:04;10.18;;;8.45;;
1446;SDS011;717;51.522;7.266;2024-01-06T00:44:35;9.93;;;8.07;;
1446;SDS011;717;51.522;7.266;2024-01-06T00:47:05;8.80;;;7.90;;
1446;SDS011;717;51.522;7.266;2024-01-06T00:49:35;10.02;;;8.35;;
1446;SDS011;717;51.522;7.266;2024-01-06T00:52:08;9.05;;;8.07;;
1446;SDS011;717;51.522;7.266;2024-01-06T00:54:38;9.13;;;8.23;;
1446;SDS011;717;51.522;7.266;2024-01-06T00:57:08;11.10;;;8.68;;
1446;SDS011;717;51.522;7.266;2024-01-06T00:59:38;10.07;;;8.60;;
1446;SDS011;717;51.522;7.266;2024-01-06T01:02:08;9.43;;;8.43;;
1446;SDS011;717;51.522;7.266;2024-01-06T01:04:38;10.23;;;9.15;;
1446;SDS011;717;51.522;7.266;2024-01-06T01:07:11;10.05;;;8.77;;
1446;SDS011;717;51.522;7.266;2024-01-06T01:09:42;10.40;;;8.98;;
1446;SDS011;717;51.522;7.266;2024-01-06T01:12:12;10.73;;;8.98;;
1446;SDS011;717;51.522;7.266;2024-01-06T01:14:42;11.43;;;9.43;;
1446;SDS011;717;51.522;7.266;2024-01-06T01:17:12;11.23;;;9.38;;
1446;SDS011;717;51.522;7.266;2024-01-06T01:19:42;11.23;;;10.02;;
1446;SDS011;717;51.522;7.266;2024-01-06T01:22:15;9.93;;;8.30;;
1446;SDS011;717;51.522;7.266;2024-01-06T01:24:45;11.15;;;9.82;;
1446;SDS011;717;51.522;7.266;2024-01-06T01:27:15;11.38;;;9.93;;
1446;SDS011;717;51.522;7.266;2024-01-06T01:29:45;11.13;;;9.85;;
1446;SDS011;717;51.522;7.266;2024-01-06T01:32:19;10.93;;;9.75;;
1446;SDS011;717;51.522;7.266;2024-01-06T01:34:49;12.38;;;9.65;;
1446;SDS011;717;51.522;7.266;2024-01-06T01:37:22;15.02;;;10.45;;
1446;SDS011;717;51.522;7.266;2024-01-06T01:39:52;11.60;;;10.20;;
1446;SDS011;717;51.522;7.266;2024-01-06T01:42:22;12.45;;;9.75;;
1446;SDS011;717;51.522;7.266;2024-01-06T01:44:52;12.35;;;9.88;;
1446;SDS011;717;51.522;7.266;2024-01-06T01:47:22;10.27;;;9.05;;
1446;SDS011;717;51.522;7.266;2024-01-06T01:49:53;11.43;;;9.75;;
1446;SDS011;717;51.522;7.266;2024-01-06T01:52:27;11.85;;;9.68;;
1446;SDS011;717;51.522;7.266;2024-01-06T01:54:57;12.80;;;9.93;;
1446;SDS011;717;51.522;7.266;2024-01-06T01:57:27;11.82;;;9.52;;
1446;SDS011;717;51.522;7.266;2024-01-06T01:59:57;13.38;;;9.75;;
1446;SDS011;717;51.522;7.266;2024-01-06T02:02:37;12.00;;;10.02;;
1446;SDS011;717;51.522;7.266;2024-01-06T02:05:07;12.48;;;10.52;;
1446;SDS011;717;51.522;7.266;2024-01-06T02:07:40;12.00;;;9.32;;
1446;SDS011;717;51.522;7.266;2024-01-06T02:10:10;11.77;;;9.63;;
1446;SDS011;717;51.522;7.266;2024-01-06T02:12:40;13.10;;;10.63;;
1446;SDS011;717;51.522;7.266;2024-01-06T02:15:10;11.85;;;10.52;;
1446;SDS011;717;51.522;7.266;2024-01-06T02:17:41;13.15;;;10.40;;
1446;SDS011;717;51.522;7.266;2024-01-06T02:20:11;12.70;;;10.07;;
1446;SDS011;717;51.522;7.266;2024-01-06T02:22:49;14.10;;;10.43;;
1446;SDS011;717;51.522;7.266;2024-01-06T02:25:19;14.00;;;11.13;;
1446;SDS011;717;51.522;7.266;2024-01-06T02:27:49;13.07;;;11.15;;
1446;SDS011;717;51.522;7.266;2024-01-06T02:30:19;14.38;;;11.90;;
1446;SDS011;717;51.522;7.266;2024-01-06T02:32:49;14.82;;;11.32;;
1446;SDS011;717;51.522;7.266;2024-01-06T02:35:20;14.98;;;12.20;;
1446;SDS011;717;51.522;7.266;2024-01-06T02:37:52;13.88;;;11.95;;
1446;SDS011;717;51.522;7.266;2024-01-06T02:40:22;14.38;;;11.25;;
1446;SDS011;717;51.522;7.266;2024-01-06T02:42:52;14.63;;;12.05;;
1446;SDS011;717;51.522;7.266;2024-01-06T02:45:22;14.35;;;11.55;;
1446;SDS011;717;51.522;7.266;2024-01-06T02:47:52;16.48;;;12.70;;
1446;SDS011;717;51.522;7.266;2024-01-06T02:50:23;14.82;;;11.55;;
1446;SDS011;717;51.522;7.266;2024-01-06T02:52:55;15.70;;;12.25;;
1446;SDS011;717;51.522;7.266;2024-01-06T02:55:25;15.68;;;11.35;;
1446;SDS011;717;51.522;7.266;2024-01-06T02:57:55;13.30;;;11.30;;
1446;SDS011;717;51.522;7.266;2024-01-06T03:00:25;15.60;;;11.95;;
1446;SDS011;717;51.522;7.266;2024-01-06T03:02:55;15.13;;;11.82;;
1446;SDS011;717;51.522;7.266;2024-01-06T03:05:25;15.63;;;11.30;;
1446;SDS011;717;51.522;7.266;2024-01-06T03:07:58;13.23;;;10.88;;
1446;SDS011;717;51.522;7.266;2024-01-06T03:10:28;12.80;;;9.90;;
1446;SDS011;717;51.522;7.266;2024-01-06T03:12:58;11.90;;;8.90;;
1446;SDS011;717;51.522;7.266;2024-01-06T03:15:28;10.63;;;8.98;;
1446;SDS011;717;51.522;7.266;2024-01-06T03:17:58;11.02;;;8.85;;
1446;SDS011;717;51.522;7.266;2024-01-06T03:20:28;10.98;;;8.13;;
1446;SDS011;717;51.522;7.266;2024-01-06T03:23:00;11.77;;;8.15;;
1446;SDS011;717;51.522;7.266;2024-01-06T03:25:30;10.65;;;8.30;;
1446;SDS011;717;51.522;7.266;2024-01-06T03:28:00;11.90;;;8.82;;
1446;SDS011;717;51.522;7.266;2024-01-06T03:30:30;10.18;;;8.23;;
1446;SDS011;717;51.522;7.266;2024-01-06T03:33:01;10.95;;;8.80;;
1446;SDS011;717;51.522;7.266;2024-01-06T03:35:31;12.13;;;8.70;;
1446;SDS011;717;51.522;7.266;2024-01-06T03:38:03;10.23;;;8.48;;
1446;SDS011;717;51.522;7.266;2024-01-06T03:40:33;9.93;;;7.78;;
1446;SDS011;717;51.522;7.266;2024-01-06T03:43:03;9.85;;;7.75;;
1446;SDS011;717;51.522;7.266;2024-01-06T03:45:33;11.07;;;7.85;;
1446;SDS011;717;51.522;7.266;2024-01-06T03:48:04;10.18;;;7.28;;
1446;SDS011;717;51.522;7.266;2024-01-06T03:50:34;11.20;;;7.78;;
1446;SDS011;717;51.522;7.266;2024-01-06T03:53:07;10.38;;;7.90;;
1446;SDS011;717;51.522;7.266;2024-01-06T03:55:37;10.77;;;7.60;;
1446;SDS011;717;51.522;7.266;2024-01-06T03:58:07;9.85;;;7.95;;
1446;SDS011;717;51.522;7.266;2024-01-06T04:00:37;9.90;;;7.47;;
1446;SDS011;717;51.522;7.266;2024-01-06T04:03:07;10.05;;;7.60;;
1446;SDS011;717;51.522;7.266;2024-01-06T04:05:37;8.98;;;7.45;;
1446;SDS011;717;51.522;7.266;2024-01-06T04:08:10;9.25;;;7.07;;
1446;SDS011;717;51.522;7.266;2024-01-06T04:10:40;10.80;;;7.78;;
1446;SDS011;717;51.522;7.266;2024-01-06T04:13:10;9.38;;;6.90;;
1446;SDS011;717;51.522;7.266;2024-01-06T04:15:41;8.75;;;7.00;;
1446;SDS011;717;51.522;7.266;2024-01-06T04:18:11;9.75;;;7.05;;
1446;SDS011;717;51.522;7.266;2024-01-06T04:20:41;8.77;;;6.40;;
1446;SDS011;717;51.522;7.266;2024-01-06T04:23:14;8.77;;;6.97;;
1446;SDS011;717;51.522;7.266;2024-01-06T04:25:44;8.38;;;6.20;;
1446;SDS011;717;51.522;7.266;2024-01-06T04:28:14;9.18;;;6.97;;
1446;SDS011;717;51.522;7.266;2024-01-06T04:30:41;7.38;;;6.00;;
1446;SDS011;717;51.522;7.266;2024-01-06T04:33:11;8.25;;;6.53;;
1446;SDS011;717;51.522;7.266;2024-01-06T04:35:41;8.00;;;6.30;;
1446;SDS011;717;51.522;7.266;2024-01-06T04:38:14;8.02;;;6.55;;
1446;SDS011;717;51.522;7.266;2024-01-06T04:40:44;9.52;;;6.75;;
1446;SDS011;717;51.522;7.266;2024-01-06T04:43:14;8.65;;;6.43;;
1446;SDS011;717;51.522;7.266;2024-01-06T04:45:44;9.93;;;7.15;;
1446;SDS011;717;51.522;7.266;2024-01-06T04:48:14;10.40;;;7.72;;
1446;SDS011;717;51.522;7.266;2024-01-06T04:50:44;9.23;;;7.30;;
1446;SDS011;717;51.522;7.266;2024-01-06T04:53:17;9.73;;;6.93;;
1446;SDS011;717;51.522;7.266;2024-01-06T04:55:47;9.20;;;6.78;;
1446;SDS011;717;51.522;7.266;2024-01-06T04:58:17;9.00;;;6.55;;
1446;SDS011;717;51.522;7.266;2024-01-06T05:00:47;8.25;;;6.40;;
1446;SDS011;717;51.522;7.266;2024-01-06T05:03:19;9.13;;;6.82;;
1446;SDS011;717;51.522;7.266;2024-01-06T05:05:49;9.60;;;7.03;;
1446;SDS011;717;51.522;7.266;2024-01-06T05:08:21;9.15;;;7.32;;
1446;SDS011;717;51.522;7.266;2024-01-06T05:10:52;9.02;;;7.38;;
1446;SDS011;717;51.522;7.266;2024-01-06T05:13:22;9.60;;;6.97;;
1446;SDS011;717;51.522;7.266;2024-01-06T05:15:52;9.68;;;6.97;;
1446;SDS011;717;51.522;7.266;2024-01-06T05:18:22;9.00;;;6.80;;
1446;SDS011;717;51.522;7.266;2024-01-06T05:20:52;8.98;;;6.68;;
1446;SDS011;717;51.522;7.266;2024-01-06T05:23:25;8.93;;;6.47;;
1446;SDS011;717;51.522;7.266;2024-01-06T05:25:55;9.07;;;6.95;;
1446;SDS011;717;51.522;7.266;2024-01-06T05:28:26;8.38;;;7.10;;
1446;SDS011;717;51.522;7.266;2024-01-06T05:30:55;9.52;;;7.43;;
1446;SDS011;717;51.522;7.266;2024-01-06T05:33:26;9.25;;;6.95;;
1446;SDS011;717;51.522;7.266;2024-01-06T05:35:56;9.18;;;6.72;;
1446;SDS011;717;51.522;7.266;2024-01-06T05:38:28;9.80;;;7.35;;
1446;SDS011;717;51.522;7.266;2024-01-06T05:40:58;8.15;;;6.60;;
1446;SDS011;717;51.522;7.266;2024-01-06T05:43:28;8.88;;;6.93;;
1446;SDS011;717;51.522;7.266;2024-01-06T05:45:58;9.18;;;7.60;;
1446;SDS011;717;51.522;7.266;2024-01-06T05:48:28;10.85;;;7.60;;
1446;SDS011;717;51.522;7.266;2024-01-06T05:50:59;8.30;;;6.55;;
1446;SDS011;717;51.522;7.266;2024-01-06T05:53:31;8.00;;;6.53;;
1446;SDS011;717;51.522;7.266;2024-01-06T05:56:01;10.23;;;7.38;;
1446;SDS011;717;51.522;7.266;2024-01-06T05:58:32;10.98;;;7.40;;
1446;SDS011;717;51.522;7.266;2024-01-06T06:01:02;9.68;;;7.25;;
1446;SDS011;717;51.522;7.266;2024-01-06T06:03:33;10.27;;;7.43;;
1446;SDS011;717;51.522;7.266;2024-01-06T06:06:03;10.50;;;7.10;;
1446;SDS011;717;51.522;7.266;2024-01-06T06:08:36;8.98;;;6.35;;
1446;SDS011;717;51.522;7.266;2024-01-06T06:11:06;9.18;;;6.65;;
1446;SDS011;717;51.522;7.266;2024-01-06T06:13:37;9.75;;;8.02;;
1446;SDS011;717;51.522;7.266;2024-01-06T06:16:08;9.20;;;7.20;;
1446;SDS011;717;51.522;7.266;2024-01-06T06:18:39;8.00;;;6.63;;
1446;SDS011;717;51.522;7.266;2024-01-06T06:21:09;8.05;;;6.20;;
1446;SDS011;717;51.522;7.266;2024-01-06T06:23:42;8.82;;;6.32;;
1446;SDS011;717;51.522;7.266;2024-01-06T06:26:12;8.55;;;7.03;;
1446;SDS011;717;51.522;7.266;2024-01-06T06:28:42;8.55;;;6.78;;
1446;SDS011;717;51.522;7.266;2024-01-06T06:31:12;9.60;;;7.50;;
1446;SDS011;717;51.522;7.266;2024-01-06T06:33:42;9.02;;;7.00;;
1446;SDS011;717;51.522;7.266;2024-01-06T06:36:12;8.77;;;6.95;;
1446;SDS011;717;51.522;7.266;2024-01-06T06:38:45;8.80;;;7.10;;
1446;SDS011;717;51.522;7.266;2024-01-06T06:41:15;8.43;;;6.85;;
1446;SDS011;717;51.522;7.266;2024-01-06T06:43:46;9.68;;;7.45;;
1446;SDS011;717;51.522;7.266;2024-01-06T06:46:16;9.00;;;7.38;;
1446;SDS011;717;51.522;7.266;2024-01-06T06:48:46;10.07;;;7.78;;
1446;SDS011;717;51.522;7.266;2024-01-06T06:51:17;9.38;;;7.53;;
1446;SDS011;717;51.522;7.266;2024-01-06T06:53:51;10.32;;;7.57;;
1446;SDS011;717;51.522;7.266;2024-01-06T06:56:21;10.35;;;8.02;;
1446;SDS011;717;51.522;7.266;2024-01-06T06:58:51;10.18;;;7.55;;
1446;SDS011;717;51.522;7.266;2024-01-06T07:01:21;9.93;;;7.85;;
1446;SDS011;717;51.522;7.266;2024-01-06T07:03:51;11.73;;;8.15;;
1446;SDS011;717;51.522;7.266;2024-01-06T07:06:21;9.98;;;7.88;;
1446;SDS011;717;51.522;7.266;2024-01-06T07:08:53;11.88;;;9.13;;
1446;SDS011;717;51.522;7.266;2024-01-06T07:11:23;11.35;;;8.45;;
1446;SDS011;717;51.522;7.266;2024-01-06T07:13:54;11.55;;;8.27;;
1446;SDS011;717;51.522;7.266;2024-01-06T07:16:24;10.85;;;8.52;;
1446;SDS011;717;51.522;7.266;2024-01-06T07:18:54;9.55;;;7.45;;
1446;SDS011;717;51.522;7.266;2024-01-06T07:21:24;12.55;;;8.85;;
1446;SDS011;717;51.522;7.266;2024-01-06T07:23:56;9.73;;;7.85;;
1446;SDS011;717;51.522;7.266;2024-01-06T07:26:27;11.00;;;8.57;;
1446;SDS011;717;51.522;7.266;2024-01-06T07:28:57;12.32;;;8.60;;
1446;SDS011;717;51.522;7.266;2024-01-06T07:31:27;11.13;;;8.40;;
1446;SDS011;717;51.522;7.266;2024-01-06T07:33:57;12.52;;;9.05;;
1446;SDS011;717;51.522;7.266;2024-01-06T07:36:28;11.18;;;8.65;;
1446;SDS011;717;51.522;7.266;2024-01-06T07:39:01;13.82;;;9.00;;
1446;SDS011;717;51.522;7.266;2024-01-06T07:41:31;12.20;;;9.48;;
1446;SDS011;717;51.522;7.266;2024-01-06T07:44:01;10.63;;;8.40;;
1446;SDS011;717;51.522;7.266;2024-01-06T07:46:31;11.07;;;8.45;;
1446;SDS011;717;51.522;7.266;2024-01-06T07:49:01;11.73;;;8.02;;
1446;SDS011;717;51.522;7.266;2024-01-06T07:51:31;12.88;;;8.88;;
1446;SDS011;717;51.522;7.266;2024-01-06T07:54:04;11.10;;;8.40;;
1446;SDS011;717;51.522;7.266;2024-01-06T07:56:35;14.45;;;9.40;;
1446;SDS011;717;51.522;7.266;2024-01-06T07:59:05;13.25;;;8.68;;
1446;SDS011;717;51.522;7.266;2024-01-06T08:01:35;13.45;;;8.75;;
1446;SDS011;717;51.522;7.266;2024-01-06T08:04:06;12.25;;;8.73;;
1446;SDS011;717;51.522;7.266;2024-01-06T08:06:36;12.70;;;9.00;;
1446;SDS011;717;51.522;7.266;2024-01-06T08:09:08;12.57;;;8.60;;
1446;SDS011;717;51.522;7.266;2024-01-06T08:11:39;11.88;;;8.27;;
1446;SDS011;717;51.522;7.266;2024-01-06T08:14:09;12.77;;;8.43;;
1446;SDS011;717;51.522;7.266;2024-01-06T08:16:39;12.27;;;8.25;;
1446;SDS011;717;51.522;7.266;2024-01-06T08:19:09;11.32;;;8.55;;
1446;SDS011;717;51.522;7.266;2024-01-06T08:21:40;11.05;;;7.50;;
1446;SDS011;717;51.522;7.266;2024-01-06T08:24:13;9.30;;;6.70;;
1446;SDS011;717;51.522;7.266;2024-01-06T08:26:43;10.85;;;7.60;;
1446;SDS011;717;51.522;7.266;2024-01-06T08:29:14;11.13;;;7.75;;
1446;SDS011;717;51.522;7.266;2024-01-06T08:31:46;9.68;;;7.13;;
1446;SDS011;717;51.522;7.266;2024-01-06T08:34:19;10.40;;;6.82;;
1446;SDS011;717;51.522;7.266;2024-01-06T08:36:49;11.68;;;7.07;;
1446;SDS011;717;51.522;7.266;2024-01-06T08:39:22;10.50;;;7.82;;
1446;SDS011;717;51.522;7.266;2024-01-06T08:41:53;11.32;;;8.05;;
1446;SDS011;717;51.522;7.266;2024-01-06T08:44:27;11.60;;;7.65;;
1446;SDS011;717;51.522;7.266;2024-01-06T08:46:57;10.60;;;6.70;;
1446;SDS011;717;51.522;7.266;2024-01-06T08:49:27;11.02;;;7.07;;
1446;SDS011;717;51.522;7.266;2024-01-06T08:51:57;10.27;;;6.68;;
1446;SDS011;717;51.522;7.266;2024-01-06T08:54:31;9.80;;;6.10;;
1446;SDS011;717;51.522;7.266;2024-01-06T08:57:01;10.55;;;7.32;;
1446;SDS011;717;51.522;7.266;2024-01-06T08:59:31;11.18;;;7.05;;
1446;SDS011;717;51.522;7.266;2024-01-06T09:02:01;10.93;;;7.75;;
1446;SDS011;717;51.522;7.266;2024-01-06T09:04:31;10.63;;;7.25;;
1446;SDS011;717;51.522;7.266;2024-01-06T09:07:01;10.52;;;7.43;;
1446;SDS011;717;51.522;7.266;2024-01-06T09:09:34;11.27;;;7.63;;
1446;SDS011;717;51.522;7.266;2024-01-06T09:12:05;10.57;;;7.57;;
1446;SDS011;717;51.522;7.266;2024-01-06T09:14:35;10.93;;;7.88;;
1446;SDS011;717;51.522;7.266;2024-01-06T09:17:05;11.90;;;7.50;;
1446;SDS011;717;51.522;7.266;2024-01-06T09:19:36;11.10;;;7.30;;
1446;SDS011;717;51.522;7.266;2024-01-06T09:22:06;9.43;;;7.00;;
1446;SDS011;717;51.522;7.266;2024-01-06T09:24:38;8.05;;;6.03;;
1446;SDS011;717;51.522;7.266;2024-01-06T09:27:08;8.02;;;5.85;;
1446;SDS011;717;51.522;7.266;2024-01-06T09:29:39;10.95;;;6.57;;
1446;SDS011;717;51.522;7.266;2024-01-06T09:32:09;8.45;;;6.40;;
1446;SDS011;717;51.522;7.266;2024-01-06T09:34:39;8.18;;;6.10;;
1446;SDS011;717;51.522;7.266;2024-01-06T09:37:09;8.00;;;5.53;;
1446;SDS011;717;51.522;7.266;2024-01-06T09:39:43;7.00;;;5.75;;
1446;SDS011;717;51.522;7.266;2024-01-06T09:42:13;7.18;;;5.35;;
1446;SDS011;717;51.522;7.266;2024-01-06T09:44:43;6.28;;;5.07;;
1446;SDS011;717;51.522;7.266;2024-01-06T09:47:13;6.25;;;5.47;;
1446;SDS011;717;51.522;7.266;2024-01-06T09:49:48;6.15;;;4.88;;
1446;SDS011;717;51.522;7.266;2024-01-06T09:52:21;6.72;;;5.25;;
1446;SDS011;717;51.522;7.266;2024-01-06T09:54:54;7.38;;;4.75;;
1446;SDS011;717;51.522;7.266;2024-01-06T09:57:25;6.22;;;4.20;;
1446;SDS011;717;51.522;7.266;2024-01-06T09:59:56;6.10;;;4.53;;
1446;SDS011;717;51.522;7.266;2024-01-06T10:02:37;4.75;;;4.25;;
1446;SDS011;717;51.522;7.266;2024-01-06T10:05:07;6.05;;;4.53;;
1446;SDS011;717;51.522;7.266;2024-01-06T10:07:41;5.30;;;4.78;;
1446;SDS011;717;51.522;7.266;2024-01-06T10:10:14;6.38;;;4.13;;
1446;SDS011;717;51.522;7.266;2024-01-06T10:12:44;5.18;;;4.28;;
1446;SDS011;717;51.522;7.266;2024-01-06T10:15:14;6.80;;;5.45;;
1446;SDS011;717;51.522;7.266;2024-01-06T10:17:44;6.35;;;5.38;;
1446;SDS011;717;51.522;7.266;2024-01-06T10:20:15;7.43;;;5.93;;
1446;SDS011;717;51.522;7.266;2024-01-06T10:22:46;8.95;;;6.53;;
1446;SDS011;717;51.522;7.266;2024-01-06T10:25:21;7.97;;;6.45;;
1446;SDS011;717;51.522;7.266;2024-01-06T10:27:52;7.75;;;5.78;;
1446;SDS011;717;51.522;7.266;2024-01-06T10:30:23;7.40;;;5.80;;
1446;SDS011;717;51.522;7.266;2024-01-06T10:32:54;8.18;;;6.40;;
1446;SDS011;717;51.522;7.266;2024-01-06T10:35:24;7.30;;;5.85;;
1446;SDS011;717;51.522;7.266;2024-01-06T10:37:55;9.10;;;6.38;;
1446;SDS011;717;51.522;7.266;2024-01-06T10:40:28;9.35;;;6.82;;
1446;SDS011;717;51.522;7.266;2024-01-06T10:42:58;8.85;;;6.85;;
1446;SDS011;717;51.522;7.266;2024-01-06T10:45:29;11.02;;;6.22;;
1446;SDS011;717;51.522;7.266;2024-01-06T10:47:59;11.38;;;6.32;;
1446;SDS011;717;51.522;7.266;2024-01-06T10:50:30;10.05;;;7.05;;
1446;SDS011;717;51.522;7.266;2024-01-06T10:53:01;10.55;;;6.78;;
1446;SDS011;717;51.522;7.266;2024-01-06T10:55:35;9.50;;;7.10;;
1446;SDS011;717;51.522;7.266;2024-01-06T10:58:07;11.30;;;7.88;;
1446;SDS011;717;51.522;7.266;2024-01-06T11:00:39;12.27;;;8.93;;
1446;SDS011;717;51.522;7.266;2024-01-06T11:03:06;13.68;;;9.15;;
1446;SDS011;717;51.522;7.266;2024-01-06T11:05:39;14.00;;;9.43;;
1446;SDS011;717;51.522;7.266;2024-01-06T11:08:10;12.65;;;9.07;;
1446;SDS011;717;51.522;7.266;2024-01-06T11:10:43;16.55;;;11.07;;
1446;SDS011;717;51.522;7.266;2024-01-06T11:13:14;13.43;;;9.05;;
1446;SDS011;717;51.522;7.266;2024-01-06T11:15:47;11.40;;;8.77;;
1446;SDS011;717;51.522;7.266;2024-01-06T11:18:34;11.38;;;8.65;;
1446;SDS011;717;51.522;7.266;2024-01-06T11:21:18;23.30;;;17.42;;
1446;SDS011;717;51.522;7.266;2024-01-06T11:26:56;10.43;;;7.90;;
1446;SDS011;717;51.522;7.266;2024-01-06T11:29:26;10.27;;;7.80;;
1446;SDS011;717;51.522;7.266;2024-01-06T11:34:49;10.60;;;7.90;;
1446;SDS011;717;51.522;7.266;2024-01-06T11:37:20;10.20;;;7.72;;
1446;SDS011;717;51.522;7.266;2024-01-06T11:39:53;10.77;;;8.07;;
1446;SDS011;717;51.522;7.266;2024-01-06T11:42:32;11.38;;;8.55;;
1446;SDS011;717;51.522;7.266;2024-01-06T11:45:04;13.03;;;8.90;;
1446;SDS011;717;51.522;7.266;2024-01-06T11:47:35;11.40;;;8.13;;
1446;SDS011;717;51.522;7.266;2024-01-06T11:50:05;15.65;;;14.07;;
1446;SDS011;717;51.522;7.266;2024-01-06T11:52:36;10.75;;;9.00;;
1446;SDS011;717;51.522;7.266;2024-01-06T11:55:06;10.60;;;8.57;;
1446;SDS011;717;51.522;7.266;2024-01-06T11:57:40;10.75;;;7.45;;
1446;SDS011;717;51.522;7.266;2024-01-06T12:00:10;10.20;;;7.55;;
1446;SDS011;717;51.522;7.266;2024-01-06T12:02:42;10.00;;;7.80;;
1446;SDS011;717;51.522;7.266;2024-01-06T12:05:12;11.25;;;7.85;;
1446;SDS011;717;51.522;7.266;2024-01-06T12:07:52;12.63;;;9.35;;
1446;SDS011;717;51.522;7.266;2024-01-06T12:10:24;11.35;;;9.27;;
1446;SDS011;717;51.522;7.266;2024-01-06T12:12:58;11.98;;;8.43;;
1446;SDS011;717;51.522;7.266;2024-01-06T12:15:30;12.73;;;8.48;;
1446;SDS011;717;51.522;7.266;2024-01-06T12:18:04;13.57;;;8.63;;
1446;SDS011;717;51.522;7.266;2024-01-06T12:20:36;11.15;;;8.43;;
1446;SDS011;717;51.522;7.266;2024-01-06T12:23:06;11.38;;;8.25;;
1446;SDS011;717;51.522;7.266;2024-01-06T12:25:36;12.85;;;9.00;;
1446;SDS011;717;51.522;7.266;2024-01-06T12:28:09;11.43;;;8.05;;
1446;SDS011;717;51.522;7.266;2024-01-06T12:30:40;10.13;;;8.30;;
1446;SDS011;717;51.522;7.266;2024-01-06T12:33:10;11.40;;;8.10;;
1446;SDS011;717;51.522;7.266;2024-01-06T12:35:41;12.20;;;9.05;;
1446;SDS011;717;51.522;7.266;2024-01-06T12:38:11;16.63;;;9.88;;
1446;SDS011;717;51.522;7.266;2024-01-06T12:40:41;13.98;;;8.43;;
1446;SDS011;717;51.522;7.266;2024-01-06T12:43:14;13.60;;;9.50;;
1446;SDS011;717;51.522;7.266;2024-01-06T12:45:44;14.23;;;9.35;;
1446;SDS011;717;51.522;7.266;2024-01-06T12:48:14;13.50;;;9.02;;
1446;SDS011;717;51.522;7.266;2024-01-06T12:50:44;9.63;;;7.32;;
1446;SDS011;717;51.522;7.266;2024-01-06T12:53:14;11.30;;;7.82;;
1446;SDS011;717;51.522;7.266;2024-01-06T12:55:44;11.30;;;7.82;;
1446;SDS011;717;51.522;7.266;2024-01-06T12:58:17;11.88;;;8.20;;
1446;SDS011;717;51.522;7.266;2024-01-06T13:00:48;12.07;;;8.53;;
1446;SDS011;717;51.522;7.266;2024-01-06T13:03:18;14.45;;;8.63;;
1446;SDS011;717;51.522;7.266;2024-01-06T13:05:49;15.38;;;10.15;;
1446;SDS011;717;51.522;7.266;2024-01-06T13:08:19;13.38;;;10.15;;
1446;SDS011;717;51.522;7.266;2024-01-06T13:10:49;13.18;;;9.32;;
1446;SDS011;717;51.522;7.266;2024-01-06T13:13:22;15.40;;;9.45;;
1446;SDS011;717;51.522;7.266;2024-01-06T13:15:52;12.60;;;8.60;;
1446;SDS011;717;51.522;7.266;2024-01-06T13:18:22;13.25;;;9.65;;
1446;SDS011;717;51.522;7.266;2024-01-06T13:20:54;14.10;;;9.88;;
1446;SDS011;717;51.522;7.266;2024-01-06T13:23:24;14.52;;;9.85;;
1446;SDS011;717;51.522;7.266;2024-01-06T13:25:54;12.23;;;8.95;;
1446;SDS011;717;51.522;7.266;2024-01-06T13:28:27;13.10;;;8.88;;
1446;SDS011;717;51.522;7.266;2024-01-06T13:30:57;12.63;;;7.82;;
1446;SDS011;717;51.522;7.266;2024-01-06T13:33:27;10.55;;;7.75;;
1446;SDS011;717;51.522;7.266;2024-01-06T13:35:57;12.85;;;8.38;;
1446;SDS011;717;51.522;7.266;2024-01-06T13:38:27;10.90;;;8.23;;
1446;SDS011;717;51.522;7.266;2024-01-06T13:40:57;11.50;;;7.30;;
1446;SDS011;717;51.522;7.266;2024-01-06T13:43:30;10.13;;;6.93;;
1446;SDS011;717;51.522;7.266;2024-01-06T13:46:00;8.87;;;6.10;;
1446;SDS011;717;51.522;7.266;2024-01-06T13:48:30;6.93;;;5.43;;
1446;SDS011;717;51.522;7.266;2024-01-06T13:51:01;7.38;;;5.85;;
1446;SDS011;717;51.522;7.266;2024-01-06T13:53:31;6.45;;;4.70;;
1446;SDS011;717;51.522;7.266;2024-01-06T13:56:01;23.88;;;14.35;;
1446;SDS011;717;51.522;7.266;2024-01-06T13:58:35;16.80;;;10.18;;
1446;SDS011;717;51.522;7.266;2024-01-06T14:01:05;10.03;;;5.80;;
1446;SDS011;717;51.522;7.266;2024-01-06T14:03:38;8.80;;;6.28;;
1446;SDS011;717;51.522;7.266;2024-01-06T14:06:08;8.32;;;6.30;;
1446;SDS011;717;51.522;7.266;2024-01-06T14:08:38;8.20;;;5.93;;
1446;SDS011;717;51.522;7.266;2024-01-06T14:11:08;9.90;;;6.30;;
1446;SDS011;717;51.522;7.266;2024-01-06T14:13:41;8.27;;;5.45;;
1446;SDS011;717;51.522;7.266;2024-01-06T14:16:15;8.88;;;5.72;;
1446;SDS011;717;51.522;7.266;2024-01-06T14:18:45;9.57;;;6.13;;
1446;SDS011;717;51.522;7.266;2024-01-06T14:21:15;8.25;;;6.57;;
1446;SDS011;717;51.522;7.266;2024-01-06T14:23:46;8.23;;;6.78;;
1446;SDS011;717;51.522;7.266;2024-01-06T14:26:17;8.43;;;5.80;;
1446;SDS011;717;51.522;7.266;2024-01-06T14:28:50;8.03;;;5.80;;
1446;SDS011;717;51.522;7.266;2024-01-06T14:31:20;9.38;;;5.82;;
1446;SDS011;717;51.522;7.266;2024-01-06T14:33:50;8.50;;;6.63;;
1446;SDS011;717;51.522;7.266;2024-01-06T14:36:25;9.67;;;6.70;;
1446;SDS011;717;51.522;7.266;2024-01-06T14:38:56;9.52;;;6.05;;
1446;SDS011;717;51.522;7.266;2024-01-06T14:41:27;8.15;;;5.53;;
1446;SDS011;717;51.522;7.266;2024-01-06T14:43:59;7.23;;;5.40;;
1446;SDS011;717;51.522;7.266;2024-01-06T14:46:29;11.60;;;8.35;;
1446;SDS011;717;51.522;7.266;2024-01-06T14:49:01;8.85;;;6.45;;
1446;SDS011;717;51.522;7.266;2024-01-06T14:51:32;10.07;;;6.57;;
1446;SDS011;717;51.522;7.266;2024-01-06T14:54:02;8.63;;;5.83;;
1446;SDS011;717;51.522;7.266;2024-01-06T14:56:38;9.15;;;5.57;;
1446;SDS011;717;51.522;7.266;2024-01-06T14:59:11;7.85;;;6.03;;
1446;SDS011;717;51.522;7.266;2024-01-06T15:01:45;9.73;;;6.40;;
1446;SDS011;717;51.522;7.266;2024-01-06T15:04:16;9.48;;;6.55;;
1446;SDS011;717;51.522;7.266;2024-01-06T15:06:47;8.13;;;6.27;;
1446;SDS011;717;51.522;7.266;2024-01-06T15:09:17;8.63;;;5.80;;
1446;SDS011;717;51.522;7.266;2024-01-06T15:11:47;7.43;;;5.57;;
1446;SDS011;717;51.522;7.266;2024-01-06T15:14:19;10.17;;;6.53;;
1446;SDS011;717;51.522;7.266;2024-01-06T15:16:49;12.57;;;9.33;;
1446;SDS011;717;51.522;7.266;2024-01-06T15:19:19;15.77;;;12.17;;
1446;SDS011;717;51.522;7.266;2024-01-06T15:21:54;18.05;;;12.90;;
1446;SDS011;717;51.522;7.266;2024-01-06T15:24:24;13.30;;;7.07;;
1446;SDS011;717;51.522;7.266;2024-01-06T15:26:54;9.23;;;6.53;;
1446;SDS011;717;51.522;7.266;2024-01-06T15:29:27;11.38;;;9.07;;
1446;SDS011;717;51.522;7.266;2024-01-06T15:31:57;10.35;;;8.05;;
1446;SDS011;717;51.522;7.266;2024-01-06T15:34:27;9.40;;;6.68;;
1446;SDS011;717;51.522;7.266;2024-01-06T15:36:57;10.68;;;8.48;;
1446;SDS011;717;51.522;7.266;2024-01-06T15:39:27;10.00;;;6.85;;
1446;SDS011;717;51.522;7.266;2024-01-06T15:41:58;8.93;;;6.17;;
1446;SDS011;717;51.522;7.266;2024-01-06T15:44:30;7.45;;;6.28;;
1446;SDS011;717;51.522;7.266;2024-01-06T15:47:01;7.95;;;7.13;;
1446;SDS011;717;51.522;7.266;2024-01-06T15:49:31;7.40;;;5.60;;